Elko, Nevada
Current Conditions -  °F | °C
As of 9:09 PM on Friday 19 Dec 2014 (Local Time) from KEKO Reporting Station
Overcast Overcast  
Wind Chill: 33°   Ceiling: 1200
Heat Index: 33°   Visibility: 8mi
Dew Point: 32°   Wind: 0mph
Humidity: 96%   Direction: NA
Pressure: 30.13"   Gusts: NA
Location:  40.84°N, 115.76°W
Report Text: KEKO 200509Z AUTO 00000KT 8SM FEW003 OVC012 01/00 A3013 RMK AO2 T00060000
Loading
Personal Weather Stations






























Interactive Weather Map New forecast layout! Learn more

10-Day Weather Forecast

Advertisements
Track Severe Weather on mobile